Create Custom Reports and Graphics: Custom Report

Latest Observations

Map

15 Minute Data

Lodi West

Latest Observations

15 Minute Data | America/Los_Angeles
as of 5/24/19 6:36 PM PDT
Station Date Time Temp (°F) Dew Pt (°F) RH (%) Wind Dir (°) Wind Spd (mph) Wind Gust (mph) Latest Rain (In) Daily Rain (In) Daily Min Temp (°F) Daily Max Temp (°F)
Utter - Wilson 5/24/19 1830 70.2   0.7 57.4   0.8 64   0 SSW | 207 7.1   1.3 12.6   0.3 0.00 0.00 54.4   1.5 77.3   5.8
Clarksburg (CLK) 5/24/19 1830 67.7   0.0 59.5   2.6 75   7 SW | 224 5.3   0.2 11.4   2.1 0.00 0.00 53.9   1.4 74.0   4.8
Gorter - Wilson 5/24/19 1830 71.6   1.7 57.8   0.0 62   4 SW | 230 6.5   2.9 13.9   6.1 0.00 0.00 54.2   0.2 76.8   3.3
Hood (HOD) 5/24/19 1830 70.4   0.4 58.7   2.2 66   4 WSW | 241 7.3   3.6 14.1   4.8 0.00 0.00 54.9   0.5 74.8   5.4
Courtland-C3 5/24/19 1830 71.6   1.9 56.3   0.2 58   4 WSW | 243 8.9   1.7 19.6   0.9 0.00 0.00 54.2   0.2 76.0   4.2
Pacific Fruit 5/3/19 1700 83.2   1.5 44.1   1.0 25   0 W | 259 4.8   0.0 9.3   0.8 0.00 0.00 45.3   1.6 85.6   3.1
Ryer Island South (RIS) 5/24/19 1830 71.1   4.5 54.1   0.6 55   9 W | 266 6.5   1.6 12.7   0.3 0.00 0.00 55.6   2.1 76.5   3.4
Guard Rd (Lodi WSW) 5/24/19 1830 74.8   3.2 56.4   2.6 53   10 W | 280 4.1   2.6 8.6   3.7 0.00 0.00 50.1   3.8 78.3   3.2
Claussen 5/24/19 1830 78.4   6.7 56.8   1.3 47   9 W | 281 2.8   3.0 9.4   2.0 0.00 0.00 53.5   2.2 84.2   1.8
Max     78.4 59.5 75 - 8.9 19.6 0.00 0.00 55.6 84.2
Avg     72.0 57.1 60 - 6.0 12.8 0.00 - - -
Min     67.7 54.1 47 - 2.8 8.6 0.00 0.00 50.1 74.0

Lodi Central

Latest Observations

15 Minute Data | America/Los_Angeles
as of 5/24/19 6:36 PM PDT
Station Date Time Temp (°F) Dew Pt (°F) RH (%) Wind Dir (°) Wind Spd (mph) Wind Gust (mph) Latest Rain (In) Daily Rain (In) Daily Min Temp (°F) Daily Max Temp (°F)
Galt West (GAW) 5/24/19 1830 73.6   3.3 56.3   0.8 55   5 WSW | 249 5.2   0.5 10.3   1.8 0.00 0.00 52.9   0.1 77.3   0.7
Valley Oak 5/24/19 1830 75.2   3.7 53.8   0.0 47   6 WSW | 249 5.2   0.0 9.4   3.5 0.00 0.00 53.6   0.3 78.0   2.7
Thornton 5/24/19 1830 75.0   1.6 55.4   0.2 51   2 WSW | 251 5.0   0.6 10.5   0.0 0.00 0.00 53.0   0.0 76.9   1.5
Kost Rd 5/24/19 1800 76.5   1.6 58.2   3.7 53   9 SW | 228 4.3   2.4 8.4   2.8 0.00 0.00 53.0   0.9 77.6   1.1
DeVries Road-North 5/24/19 1830 75.8   3.9 56.6   1.4 51   4 W | 268 5.4   1.1 9.2   4.7 0.00 0.00 51.1   0.7 77.9   1.9
Lodi (LangeTwins) 5/24/19 1830 75.8   2.5 56.4   0.2 51   4 WSW | 256 6.5   3.0 11.8   3.7 0.00 0.00 53.2   0.2 77.4   3.9
Acampo (ACP) 5/24/19 1830 75.7   4.1 56.5   3.0 51   2 WSW | 237 1.8   6.7 5.8   9.4 0.00 0.00 51.4   2.5 76.9   1.0
Lodi West (MDW) 5/24/19 1830 74.9   0.3 55.8   2.2 51   4 W | 277 3.6   2.1 8.8   3.5 0.00 0.00 52.8   2.4 78.4   1.2
Max     76.5 58.2 55 - 6.5 11.8 0.00 0.00 53.6 78.4
Avg     75.3 56.1 51 - 4.6 9.3 0.00 - - -
Min     73.6 53.8 47 - 1.8 5.8 0.00 0.00 51.1 76.9

Latest Observation

19 Stations

15 Minute Data | America/Los_Angeles
as of 5/24/19 6:36 PM PDT
Station Date Time Temp (°F) Dew Pt (°F) RH (%) Wind Spd (mph) Wind Dir (°) Wind Gust (mph) Latest Rain (In) Daily Rain (In) Daily Min Temp (°F) Daily Max Temp (°F)
Borden Hills 5/24/19 1830 77.9   9.5 58.2   1.1 51   16 3.3   8.3 W | 268 6.7   9.8 0.00 0.00 52.7   1.9 80.0   1.4
Collegeville (COL) 5/24/19 1830 75.0   3.9 57.4   2.2 54   3 3.2   2.5 ESE | 104 5.6   4.1 0.00 0.00 52.6   1.1 78.0   0.3
Galt-East (EGT) 5/24/19 1815 76.0   5.0 56.3   0.9 50   7 3.2   8.4 WNW | 284 7.0   15.1 0.00 0.00 51.8   2.1 78.3   1.1
Escalon (ESL) 5/24/19 1830 78.2   4.8 58.5   4.2 51   1 1.8   1.0 N | 9 4.6   4.9 0.00 0.01 54.2   0.1 79.8   1.5
Victor - N (Katusha) 5/24/19 1830 76.1   6.3 54.9   1.9 48   7 3.2   3.6 W | 267 7.4   7.7 0.00 0.00 51.1   2.0 76.8   1.6
Gilbeau Ranch 5/24/19 1830 76.2   7.0 55.9   0.9 49   11 2.1   1.6 SW | 228 6.1   4.8 0.00 0.00 50.2   3.4 78.5   1.3
Lodi 5/24/19 1730 77.2   0.6 55.0   6.6 46   11 1.7   0.2 ESE | 118 4.6   0.3 0.00 0.00 50.8   3.5 77.5   1.5
Linden (LIN) 5/24/19 1830 77.5   1.4 56.4   1.6 48   5 0.9   1.0 NNW | 342 2.7   4.7 0.00 0.00 50.8   2.9 79.2   1.1
Live Oak (LIV) 5/24/19 1830 80.0   3.4 58.0   2.7 47   1 3.0   0.8 W | 273 6.6   2.1 0.00 0.00 51.2   2.6 85.6   0.9
Lockeford (LOC) 5/24/19 1830 76.4   6.4 - - 3.6   7.9 W | 265 7.1   13.4 0.00 0.00 50.9   2.3 78.0   0.5
Lone Oak-L28 5/24/19 1830 76.0   6.2 56.3   1.8 50   8 1.8   5.2 WNW | 282 3.4   10.7 0.00 0.00 49.3   1.8 78.5   0.6
Sheldon (SHL) 5/24/19 1830 75.2   6.3 55.9   2.7 51   6 4.5   2.2 SW | 216 8.8   3.4 0.00 0.00 52.1   1.0 77.4   1.1
Sierra Loma-L27 5/24/19 1830 78.0   9.4 57.9   1.9 50   14 2.9   7.3 SSE | 164 6.7   11.8 0.00 0.00 52.0   1.2 79.4   1.0
Simmerhorn (SIM) 5/17/19 1100 56.9   1.8 47.9   2.8 72   13 - - - - - 50.5   0.2 57.4   3.7
Sloughhouse (SLH) 5/24/19 1800 74.3   5.7 56.5   4.0 54   3 0.5   5.4 SW | 233 5.4   8.4 0.00 0.00 51.2   1.5 75.7   0.9
5 Wells 5/24/19 1830 76.2   7.1 55.3   0.7 48   12 5.3   5.5 SW | 227 7.9   10.0 0.00 0.00 52.0   2.5 77.7   1.5
Max     80.0 58.5 54 5.3 - 8.8 0.00 0.01 54.2 85.6
Avg     76.7 56.6 50 2.7 - 6.0 0.00 - - -
Min     74.3 54.9 46 0.5 - 2.7 0.00 0.00 49.3 75.7